Heathsville, Virginia
Current Conditions -  °F | °C
As of 1:53 PM on Friday 31 Oct 2014 (Local Time) from KNUI Reporting Station
Clear Clear  
Wind Chill: 57°   Ceiling: Unl
Heat Index: 57°   Visibility: 10mi
Dew Point: 32°   Wind: 8mph
Humidity: 39%   Direction: 60°ENE
Pressure: 29.89"   Gusts: NA
Location:  37.92°N, 76.47°W
Report Text: KNUI 311753Z AUTO 06007KT 10SM CLR 14/00 A2989 RMK AO2 SLP120 T01390000 10144 20050 58022 $
Loading
Personal Weather Stations






























Interactive Weather Map
Tropical Storm Tracking
New forecast layout! Learn more

10-Day Weather Forecast

Advertisements
Track Severe Weather on mobile